sensor_id;sensor_type;location;lat;lon;timestamp;P1;durP1;ratioP1;P2;durP2;ratioP2
40373;SDS011;26079;45.958;12.492;2023-06-26T00:00:15;6.07;;;5.07;;
40373;SDS011;26079;45.958;12.492;2023-06-26T00:02:41;9.05;;;4.95;;
40373;SDS011;26079;45.958;12.492;2023-06-26T00:05:06;8.13;;;5.28;;
40373;SDS011;26079;45.958;12.492;2023-06-26T00:07:32;5.43;;;4.65;;
40373;SDS011;26079;45.958;12.492;2023-06-26T00:10:01;8.45;;;4.70;;
40373;SDS011;26079;45.958;12.492;2023-06-26T00:12:28;5.75;;;5.07;;
40373;SDS011;26079;45.958;12.492;2023-06-26T00:14:54;6.15;;;4.90;;
40373;SDS011;26079;45.958;12.492;2023-06-26T00:17:20;6.57;;;5.53;;
40373;SDS011;26079;45.958;12.492;2023-06-26T00:19:45;8.10;;;5.20;;
40373;SDS011;26079;45.958;12.492;2023-06-26T00:22:11;5.57;;;5.07;;
40373;SDS011;26079;45.958;12.492;2023-06-26T00:24:37;5.53;;;5.03;;
40373;SDS011;26079;45.958;12.492;2023-06-26T00:27:03;5.43;;;4.90;;
40373;SDS011;26079;45.958;12.492;2023-06-26T00:29:28;5.50;;;4.80;;
40373;SDS011;26079;45.958;12.492;2023-06-26T00:31:54;13.95;;;5.90;;
40373;SDS011;26079;45.958;12.492;2023-06-26T00:34:20;9.05;;;5.65;;
40373;SDS011;26079;45.958;12.492;2023-06-26T00:36:45;6.72;;;5.68;;
40373;SDS011;26079;45.958;12.492;2023-06-26T00:39:11;7.53;;;5.72;;
40373;SDS011;26079;45.958;12.492;2023-06-26T00:41:37;5.72;;;5.22;;
40373;SDS011;26079;45.958;12.492;2023-06-26T00:44:06;6.10;;;5.50;;
40373;SDS011;26079;45.958;12.492;2023-06-26T00:46:32;6.10;;;5.60;;
40373;SDS011;26079;45.958;12.492;2023-06-26T00:48:59;6.47;;;4.78;;
40373;SDS011;26079;45.958;12.492;2023-06-26T00:51:27;7.93;;;5.07;;
40373;SDS011;26079;45.958;12.492;2023-06-26T00:53:55;5.50;;;5.00;;
40373;SDS011;26079;45.958;12.492;2023-06-26T00:56:21;5.55;;;5.05;;
40373;SDS011;26079;45.958;12.492;2023-06-26T00:58:47;5.50;;;5.00;;
40373;SDS011;26079;45.958;12.492;2023-06-26T01:01:13;10.18;;;6.22;;
40373;SDS011;26079;45.958;12.492;2023-06-26T01:03:42;6.82;;;5.47;;
40373;SDS011;26079;45.958;12.492;2023-06-26T01:06:10;7.88;;;5.35;;
40373;SDS011;26079;45.958;12.492;2023-06-26T01:08:38;8.93;;;5.97;;
40373;SDS011;26079;45.958;12.492;2023-06-26T01:11:04;4.97;;;4.57;;
40373;SDS011;26079;45.958;12.492;2023-06-26T01:13:30;5.38;;;4.88;;
40373;SDS011;26079;45.958;12.492;2023-06-26T01:16:00;5.82;;;5.22;;
40373;SDS011;26079;45.958;12.492;2023-06-26T01:18:27;5.85;;;5.35;;
40373;SDS011;26079;45.958;12.492;2023-06-26T01:20:54;7.57;;;6.13;;
40373;SDS011;26079;45.958;12.492;2023-06-26T01:26:21;7.47;;;5.20;;
40373;SDS011;26079;45.958;12.492;2023-06-26T01:28:51;4.82;;;4.32;;
40373;SDS011;26079;45.958;12.492;2023-06-26T01:31:19;6.68;;;5.85;;
40373;SDS011;26079;45.958;12.492;2023-06-26T01:33:44;8.00;;;5.78;;
40373;SDS011;26079;45.958;12.492;2023-06-26T01:36:11;6.80;;;6.07;;
40373;SDS011;26079;45.958;12.492;2023-06-26T01:38:37;6.28;;;5.65;;
40373;SDS011;26079;45.958;12.492;2023-06-26T01:41:03;10.05;;;5.63;;
40373;SDS011;26079;45.958;12.492;2023-06-26T01:49:31;7.63;;;5.25;;
40373;SDS011;26079;45.958;12.492;2023-06-26T01:55:05;6.25;;;5.40;;
40373;SDS011;26079;45.958;12.492;2023-06-26T01:57:42;6.28;;;5.35;;
40373;SDS011;26079;45.958;12.492;2023-06-26T02:00:09;5.90;;;5.30;;
40373;SDS011;26079;45.958;12.492;2023-06-26T02:02:36;6.25;;;5.40;;
40373;SDS011;26079;45.958;12.492;2023-06-26T02:05:02;7.38;;;6.47;;
40373;SDS011;26079;45.958;12.492;2023-06-26T02:07:28;6.93;;;5.75;;
40373;SDS011;26079;45.958;12.492;2023-06-26T02:09:54;6.90;;;6.20;;
40373;SDS011;26079;45.958;12.492;2023-06-26T02:12:20;15.80;;;6.57;;
40373;SDS011;26079;45.958;12.492;2023-06-26T02:14:45;8.20;;;5.63;;
40373;SDS011;26079;45.958;12.492;2023-06-26T02:17:11;12.60;;;6.40;;
40373;SDS011;26079;45.958;12.492;2023-06-26T02:19:37;6.93;;;6.32;;
40373;SDS011;26079;45.958;12.492;2023-06-26T02:22:12;9.38;;;6.20;;
40373;SDS011;26079;45.958;12.492;2023-06-26T02:24:39;7.20;;;5.70;;
40373;SDS011;26079;45.958;12.492;2023-06-26T02:27:06;8.07;;;6.28;;
40373;SDS011;26079;45.958;12.492;2023-06-26T02:29:31;6.20;;;5.70;;
40373;SDS011;26079;45.958;12.492;2023-06-26T02:31:57;10.07;;;6.85;;
40373;SDS011;26079;45.958;12.492;2023-06-26T02:34:23;7.20;;;6.57;;
40373;SDS011;26079;45.958;12.492;2023-06-26T02:36:48;8.10;;;5.95;;
40373;SDS011;26079;45.958;12.492;2023-06-26T02:39:14;6.57;;;6.07;;
40373;SDS011;26079;45.958;12.492;2023-06-26T02:41:40;6.93;;;6.22;;
40373;SDS011;26079;45.958;12.492;2023-06-26T02:44:06;6.78;;;6.05;;
40373;SDS011;26079;45.958;12.492;2023-06-26T02:46:32;7.43;;;6.72;;
40373;SDS011;26079;45.958;12.492;2023-06-26T02:48:58;8.07;;;6.32;;
40373;SDS011;26079;45.958;12.492;2023-06-26T02:51:24;6.45;;;5.72;;
40373;SDS011;26079;45.958;12.492;2023-06-26T02:53:50;7.25;;;6.53;;
40373;SDS011;26079;45.958;12.492;2023-06-26T02:56:15;7.53;;;6.72;;
40373;SDS011;26079;45.958;12.492;2023-06-26T02:58:41;8.68;;;6.10;;
40373;SDS011;26079;45.958;12.492;2023-06-26T03:01:07;8.55;;;6.93;;
40373;SDS011;26079;45.958;12.492;2023-06-26T03:03:32;7.05;;;6.45;;
40373;SDS011;26079;45.958;12.492;2023-06-26T03:06:05;8.83;;;6.27;;
40373;SDS011;26079;45.958;12.492;2023-06-26T03:08:32;7.63;;;6.63;;
40373;SDS011;26079;45.958;12.492;2023-06-26T03:10:58;7.68;;;6.38;;
40373;SDS011;26079;45.958;12.492;2023-06-26T03:13:24;7.65;;;6.85;;
40373;SDS011;26079;45.958;12.492;2023-06-26T03:15:50;7.00;;;6.32;;
40373;SDS011;26079;45.958;12.492;2023-06-26T03:18:15;8.45;;;6.60;;
40373;SDS011;26079;45.958;12.492;2023-06-26T03:20:41;10.90;;;6.65;;
40373;SDS011;26079;45.958;12.492;2023-06-26T03:23:07;6.93;;;6.22;;
40373;SDS011;26079;45.958;12.492;2023-06-26T03:25:32;12.50;;;7.00;;
40373;SDS011;26079;45.958;12.492;2023-06-26T03:27:58;7.18;;;6.47;;
40373;SDS011;26079;45.958;12.492;2023-06-26T03:30:24;6.95;;;6.35;;
40373;SDS011;26079;45.958;12.492;2023-06-26T03:32:49;7.10;;;6.45;;
40373;SDS011;26079;45.958;12.492;2023-06-26T03:35:15;10.43;;;6.50;;
40373;SDS011;26079;45.958;12.492;2023-06-26T03:37:41;11.40;;;6.63;;
40373;SDS011;26079;45.958;12.492;2023-06-26T03:40:07;7.32;;;6.72;;
40373;SDS011;26079;45.958;12.492;2023-06-26T03:42:33;7.30;;;6.60;;
40373;SDS011;26079;45.958;12.492;2023-06-26T03:45:00;8.85;;;7.07;;
40373;SDS011;26079;45.958;12.492;2023-06-26T03:47:26;7.65;;;6.95;;
40373;SDS011;26079;45.958;12.492;2023-06-26T03:49:51;13.98;;;8.48;;
40373;SDS011;26079;45.958;12.492;2023-06-26T03:52:17;8.65;;;7.70;;
40373;SDS011;26079;45.958;12.492;2023-06-26T03:54:43;6.97;;;5.90;;
40373;SDS011;26079;45.958;12.492;2023-06-26T03:57:09;9.38;;;5.93;;
40373;SDS011;26079;45.958;12.492;2023-06-26T03:59:35;7.40;;;6.80;;
40373;SDS011;26079;45.958;12.492;2023-06-26T04:02:01;8.55;;;7.03;;
40373;SDS011;26079;45.958;12.492;2023-06-26T04:04:28;8.55;;;6.10;;
40373;SDS011;26079;45.958;12.492;2023-06-26T04:06:54;7.60;;;6.90;;
40373;SDS011;26079;45.958;12.492;2023-06-26T04:09:20;7.35;;;6.40;;
40373;SDS011;26079;45.958;12.492;2023-06-26T04:11:46;6.97;;;6.03;;
40373;SDS011;26079;45.958;12.492;2023-06-26T04:14:12;9.25;;;7.05;;
40373;SDS011;26079;45.958;12.492;2023-06-26T04:16:37;7.32;;;5.90;;
40373;SDS011;26079;45.958;12.492;2023-06-26T04:19:03;7.68;;;6.93;;
40373;SDS011;26079;45.958;12.492;2023-06-26T04:21:30;9.45;;;6.07;;
40373;SDS011;26079;45.958;12.492;2023-06-26T04:23:55;10.15;;;7.07;;
40373;SDS011;26079;45.958;12.492;2023-06-26T04:26:21;9.32;;;6.65;;
40373;SDS011;26079;45.958;12.492;2023-06-26T04:28:47;7.75;;;7.00;;
40373;SDS011;26079;45.958;12.492;2023-06-26T04:31:13;11.45;;;6.95;;
40373;SDS011;26079;45.958;12.492;2023-06-26T04:33:39;7.45;;;6.53;;
40373;SDS011;26079;45.958;12.492;2023-06-26T04:36:05;9.48;;;6.85;;
40373;SDS011;26079;45.958;12.492;2023-06-26T04:38:31;7.38;;;6.65;;
40373;SDS011;26079;45.958;12.492;2023-06-26T04:40:58;7.97;;;7.22;;
40373;SDS011;26079;45.958;12.492;2023-06-26T04:43:24;8.15;;;7.30;;
40373;SDS011;26079;45.958;12.492;2023-06-26T04:45:50;8.15;;;6.88;;
40373;SDS011;26079;45.958;12.492;2023-06-26T04:48:15;8.60;;;7.13;;
40373;SDS011;26079;45.958;12.492;2023-06-26T04:50:41;8.10;;;7.25;;
40373;SDS011;26079;45.958;12.492;2023-06-26T04:53:07;7.88;;;7.07;;
40373;SDS011;26079;45.958;12.492;2023-06-26T04:55:33;8.10;;;7.20;;
40373;SDS011;26079;45.958;12.492;2023-06-26T04:57:58;8.52;;;7.60;;
40373;SDS011;26079;45.958;12.492;2023-06-26T05:00:24;10.85;;;7.43;;
40373;SDS011;26079;45.958;12.492;2023-06-26T05:02:50;8.88;;;7.93;;
40373;SDS011;26079;45.958;12.492;2023-06-26T05:05:28;8.50;;;7.60;;
40373;SDS011;26079;45.958;12.492;2023-06-26T05:07:54;8.48;;;7.68;;
40373;SDS011;26079;45.958;12.492;2023-06-26T05:10:21;10.25;;;7.57;;
40373;SDS011;26079;45.958;12.492;2023-06-26T05:12:47;9.13;;;6.80;;
40373;SDS011;26079;45.958;12.492;2023-06-26T05:15:12;8.05;;;6.95;;
40373;SDS011;26079;45.958;12.492;2023-06-26T05:17:38;8.23;;;7.45;;
40373;SDS011;26079;45.958;12.492;2023-06-26T05:20:04;11.23;;;7.75;;
40373;SDS011;26079;45.958;12.492;2023-06-26T05:22:31;11.13;;;8.32;;
40373;SDS011;26079;45.958;12.492;2023-06-26T05:25:00;7.63;;;6.88;;
40373;SDS011;26079;45.958;12.492;2023-06-26T05:27:27;7.97;;;6.80;;
40373;SDS011;26079;45.958;12.492;2023-06-26T05:29:53;8.85;;;7.47;;
40373;SDS011;26079;45.958;12.492;2023-06-26T05:32:19;15.43;;;7.28;;
40373;SDS011;26079;45.958;12.492;2023-06-26T05:34:46;8.07;;;6.68;;
40373;SDS011;26079;45.958;12.492;2023-06-26T05:37:20;7.57;;;6.68;;
40373;SDS011;26079;45.958;12.492;2023-06-26T05:39:46;8.50;;;7.70;;
40373;SDS011;26079;45.958;12.492;2023-06-26T05:42:13;9.75;;;7.68;;
40373;SDS011;26079;45.958;12.492;2023-06-26T05:44:39;9.38;;;6.75;;
40373;SDS011;26079;45.958;12.492;2023-06-26T05:47:04;11.35;;;7.03;;
40373;SDS011;26079;45.958;12.492;2023-06-26T05:49:30;9.40;;;6.68;;
40373;SDS011;26079;45.958;12.492;2023-06-26T05:51:56;8.55;;;6.35;;
40373;SDS011;26079;45.958;12.492;2023-06-26T05:54:23;10.32;;;6.60;;
40373;SDS011;26079;45.958;12.492;2023-06-26T05:56:50;8.50;;;6.03;;
40373;SDS011;26079;45.958;12.492;2023-06-26T05:59:20;7.05;;;6.35;;
40373;SDS011;26079;45.958;12.492;2023-06-26T06:01:47;6.28;;;5.75;;
40373;SDS011;26079;45.958;12.492;2023-06-26T06:04:13;8.63;;;6.43;;
40373;SDS011;26079;45.958;12.492;2023-06-26T06:06:39;10.18;;;7.03;;
40373;SDS011;26079;45.958;12.492;2023-06-26T06:09:04;10.60;;;6.72;;
40373;SDS011;26079;45.958;12.492;2023-06-26T06:11:30;12.02;;;7.10;;
40373;SDS011;26079;45.958;12.492;2023-06-26T06:13:56;7.78;;;6.97;;
40373;SDS011;26079;45.958;12.492;2023-06-26T06:16:23;13.32;;;6.63;;
40373;SDS011;26079;45.958;12.492;2023-06-26T06:18:49;10.20;;;6.68;;
40373;SDS011;26079;45.958;12.492;2023-06-26T06:21:15;11.18;;;6.45;;
40373;SDS011;26079;45.958;12.492;2023-06-26T06:23:41;7.50;;;6.80;;
40373;SDS011;26079;45.958;12.492;2023-06-26T06:26:06;7.15;;;6.55;;
40373;SDS011;26079;45.958;12.492;2023-06-26T06:28:32;8.02;;;6.45;;
40373;SDS011;26079;45.958;12.492;2023-06-26T06:30:58;10.93;;;6.10;;
40373;SDS011;26079;45.958;12.492;2023-06-26T06:33:23;7.55;;;6.32;;
40373;SDS011;26079;45.958;12.492;2023-06-26T06:35:49;7.45;;;6.88;;
40373;SDS011;26079;45.958;12.492;2023-06-26T06:38:15;12.95;;;7.95;;
40373;SDS011;26079;45.958;12.492;2023-06-26T06:40:40;9.13;;;7.32;;
40373;SDS011;26079;45.958;12.492;2023-06-26T06:43:06;22.90;;;7.65;;
40373;SDS011;26079;45.958;12.492;2023-06-26T06:45:32;7.07;;;6.47;;
40373;SDS011;26079;45.958;12.492;2023-06-26T06:47:57;13.43;;;8.48;;
40373;SDS011;26079;45.958;12.492;2023-06-26T06:50:23;14.68;;;7.13;;
40373;SDS011;26079;45.958;12.492;2023-06-26T06:52:49;11.85;;;6.28;;
40373;SDS011;26079;45.958;12.492;2023-06-26T06:55:14;13.57;;;6.88;;
40373;SDS011;26079;45.958;12.492;2023-06-26T06:57:40;11.48;;;7.35;;
40373;SDS011;26079;45.958;12.492;2023-06-26T07:00:12;12.10;;;7.43;;
40373;SDS011;26079;45.958;12.492;2023-06-26T07:02:42;6.75;;;6.15;;
40373;SDS011;26079;45.958;12.492;2023-06-26T07:05:10;7.03;;;6.32;;
40373;SDS011;26079;45.958;12.492;2023-06-26T07:07:36;9.68;;;7.10;;
40373;SDS011;26079;45.958;12.492;2023-06-26T07:10:04;10.93;;;6.68;;
40373;SDS011;26079;45.958;12.492;2023-06-26T07:12:31;7.10;;;6.50;;
40373;SDS011;26079;45.958;12.492;2023-06-26T07:14:56;12.60;;;6.97;;
40373;SDS011;26079;45.958;12.492;2023-06-26T07:17:22;13.63;;;6.30;;
40373;SDS011;26079;45.958;12.492;2023-06-26T07:19:49;9.52;;;6.75;;
40373;SDS011;26079;45.958;12.492;2023-06-26T07:22:15;6.95;;;6.03;;
40373;SDS011;26079;45.958;12.492;2023-06-26T07:24:40;11.18;;;7.55;;
40373;SDS011;26079;45.958;12.492;2023-06-26T07:27:06;8.15;;;6.63;;
40373;SDS011;26079;45.958;12.492;2023-06-26T07:29:32;8.35;;;6.47;;
40373;SDS011;26079;45.958;12.492;2023-06-26T07:31:58;8.98;;;7.95;;
40373;SDS011;26079;45.958;12.492;2023-06-26T07:34:24;7.80;;;7.20;;
40373;SDS011;26079;45.958;12.492;2023-06-26T07:36:49;7.07;;;6.38;;
40373;SDS011;26079;45.958;12.492;2023-06-26T07:39:15;9.82;;;7.80;;
40373;SDS011;26079;45.958;12.492;2023-06-26T07:41:41;8.52;;;6.82;;
40373;SDS011;26079;45.958;12.492;2023-06-26T07:44:07;7.88;;;6.30;;
40373;SDS011;26079;45.958;12.492;2023-06-26T07:46:32;11.38;;;7.22;;
40373;SDS011;26079;45.958;12.492;2023-06-26T07:48:58;7.72;;;7.10;;
40373;SDS011;26079;45.958;12.492;2023-06-26T07:51:24;7.85;;;7.15;;
40373;SDS011;26079;45.958;12.492;2023-06-26T07:53:49;7.72;;;6.93;;
40373;SDS011;26079;45.958;12.492;2023-06-26T07:56:15;7.85;;;7.22;;
40373;SDS011;26079;45.958;12.492;2023-06-26T07:58:41;8.57;;;6.80;;
40373;SDS011;26079;45.958;12.492;2023-06-26T08:01:06;8.25;;;6.75;;
40373;SDS011;26079;45.958;12.492;2023-06-26T08:03:32;9.00;;;8.23;;
40373;SDS011;26079;45.958;12.492;2023-06-26T08:05:59;7.55;;;6.85;;
40373;SDS011;26079;45.958;12.492;2023-06-26T08:08:25;7.85;;;7.18;;
40373;SDS011;26079;45.958;12.492;2023-06-26T08:10:51;8.38;;;7.72;;
40373;SDS011;26079;45.958;12.492;2023-06-26T08:13:16;8.60;;;7.63;;
40373;SDS011;26079;45.958;12.492;2023-06-26T08:15:42;7.55;;;6.85;;
40373;SDS011;26079;45.958;12.492;2023-06-26T08:18:08;8.07;;;6.50;;
40373;SDS011;26079;45.958;12.492;2023-06-26T08:20:33;7.80;;;7.03;;
40373;SDS011;26079;45.958;12.492;2023-06-26T08:23:02;7.90;;;6.85;;
40373;SDS011;26079;45.958;12.492;2023-06-26T08:25:29;7.60;;;6.95;;
40373;SDS011;26079;45.958;12.492;2023-06-26T08:27:54;10.93;;;7.45;;
40373;SDS011;26079;45.958;12.492;2023-06-26T08:30:20;10.13;;;7.85;;
40373;SDS011;26079;45.958;12.492;2023-06-26T08:32:46;8.27;;;7.40;;
40373;SDS011;26079;45.958;12.492;2023-06-26T08:35:12;9.20;;;7.05;;
40373;SDS011;26079;45.958;12.492;2023-06-26T08:37:38;8.70;;;8.00;;
40373;SDS011;26079;45.958;12.492;2023-06-26T08:40:04;7.90;;;7.20;;
40373;SDS011;26079;45.958;12.492;2023-06-26T08:42:31;8.30;;;7.50;;
40373;SDS011;26079;45.958;12.492;2023-06-26T08:44:57;10.38;;;7.38;;
40373;SDS011;26079;45.958;12.492;2023-06-26T08:47:23;7.20;;;6.50;;
40373;SDS011;26079;45.958;12.492;2023-06-26T08:50:01;7.53;;;6.82;;
40373;SDS011;26079;45.958;12.492;2023-06-26T08:52:56;8.23;;;7.32;;
40373;SDS011;26079;45.958;12.492;2023-06-26T08:55:29;8.23;;;7.38;;
40373;SDS011;26079;45.958;12.492;2023-06-26T08:57:58;7.43;;;6.82;;
40373;SDS011;26079;45.958;12.492;2023-06-26T09:00:24;13.05;;;7.53;;
40373;SDS011;26079;45.958;12.492;2023-06-26T09:02:50;9.02;;;8.15;;
40373;SDS011;26079;45.958;12.492;2023-06-26T09:05:16;13.10;;;7.72;;
40373;SDS011;26079;45.958;12.492;2023-06-26T09:07:42;8.52;;;7.40;;
40373;SDS011;26079;45.958;12.492;2023-06-26T09:10:08;9.13;;;8.30;;
40373;SDS011;26079;45.958;12.492;2023-06-26T09:12:34;9.88;;;7.65;;
40373;SDS011;26079;45.958;12.492;2023-06-26T09:15:01;9.20;;;8.23;;
40373;SDS011;26079;45.958;12.492;2023-06-26T09:17:33;9.50;;;8.07;;
40373;SDS011;26079;45.958;12.492;2023-06-26T09:20:04;11.43;;;9.52;;
40373;SDS011;26079;45.958;12.492;2023-06-26T09:22:33;8.38;;;7.55;;
40373;SDS011;26079;45.958;12.492;2023-06-26T09:25:04;8.18;;;7.35;;
40373;SDS011;26079;45.958;12.492;2023-06-26T09:27:30;8.57;;;7.82;;
40373;SDS011;26079;45.958;12.492;2023-06-26T09:29:56;10.70;;;7.75;;
40373;SDS011;26079;45.958;12.492;2023-06-26T09:32:24;7.95;;;7.15;;
40373;SDS011;26079;45.958;12.492;2023-06-26T09:34:51;8.65;;;7.18;;
40373;SDS011;26079;45.958;12.492;2023-06-26T09:37:18;16.13;;;7.85;;
40373;SDS011;26079;45.958;12.492;2023-06-26T09:39:44;10.23;;;7.30;;
40373;SDS011;26079;45.958;12.492;2023-06-26T09:42:09;8.70;;;7.25;;
40373;SDS011;26079;45.958;12.492;2023-06-26T09:44:43;8.30;;;7.50;;
40373;SDS011;26079;45.958;12.492;2023-06-26T09:47:15;11.32;;;7.53;;
40373;SDS011;26079;45.958;12.492;2023-06-26T09:49:43;20.58;;;7.85;;
40373;SDS011;26079;45.958;12.492;2023-06-26T09:52:09;7.07;;;6.43;;
40373;SDS011;26079;45.958;12.492;2023-06-26T09:54:35;8.35;;;7.57;;
40373;SDS011;26079;45.958;12.492;2023-06-26T09:57:08;8.00;;;7.25;;
40373;SDS011;26079;45.958;12.492;2023-06-26T09:59:34;15.13;;;7.93;;
40373;SDS011;26079;45.958;12.492;2023-06-26T10:02:00;14.95;;;8.15;;
40373;SDS011;26079;45.958;12.492;2023-06-26T10:04:26;7.40;;;6.70;;
40373;SDS011;26079;45.958;12.492;2023-06-26T10:06:52;8.48;;;7.78;;
40373;SDS011;26079;45.958;12.492;2023-06-26T10:09:21;10.10;;;7.30;;
40373;SDS011;26079;45.958;12.492;2023-06-26T10:14:29;9.48;;;6.75;;
40373;SDS011;26079;45.958;12.492;2023-06-26T10:16:59;7.25;;;6.40;;
40373;SDS011;26079;45.958;12.492;2023-06-26T10:19:28;7.55;;;6.75;;
40373;SDS011;26079;45.958;12.492;2023-06-26T10:21:56;8.07;;;6.57;;
40373;SDS011;26079;45.958;12.492;2023-06-26T10:24:25;7.75;;;6.28;;
40373;SDS011;26079;45.958;12.492;2023-06-26T10:26:55;7.75;;;7.05;;
40373;SDS011;26079;45.958;12.492;2023-06-26T10:29:26;7.45;;;6.63;;
40373;SDS011;26079;45.958;12.492;2023-06-26T10:31:54;10.30;;;6.65;;
40373;SDS011;26079;45.958;12.492;2023-06-26T10:34:23;6.35;;;5.88;;
40373;SDS011;26079;45.958;12.492;2023-06-26T10:36:58;8.95;;;7.30;;
40373;SDS011;26079;45.958;12.492;2023-06-26T10:39:25;8.70;;;6.43;;
40373;SDS011;26079;45.958;12.492;2023-06-26T10:41:52;10.07;;;5.72;;
40373;SDS011;26079;45.958;12.492;2023-06-26T10:44:20;12.70;;;6.28;;
40373;SDS011;26079;45.958;12.492;2023-06-26T10:46:49;6.72;;;6.00;;
40373;SDS011;26079;45.958;12.492;2023-06-26T10:49:17;7.38;;;6.72;;
40373;SDS011;26079;45.958;12.492;2023-06-26T10:51:50;7.72;;;6.88;;
40373;SDS011;26079;45.958;12.492;2023-06-26T10:54:17;6.93;;;6.00;;
40373;SDS011;26079;45.958;12.492;2023-06-26T10:56:45;7.07;;;6.38;;
40373;SDS011;26079;45.958;12.492;2023-06-26T11:01:41;7.18;;;6.47;;
40373;SDS011;26079;45.958;12.492;2023-06-26T11:04:08;7.68;;;6.75;;
40373;SDS011;26079;45.958;12.492;2023-06-26T11:06:36;9.70;;;7.05;;
40373;SDS011;26079;45.958;12.492;2023-06-26T11:14:20;7.50;;;6.80;;
40373;SDS011;26079;45.958;12.492;2023-06-26T11:16:47;6.90;;;6.30;;
40373;SDS011;26079;45.958;12.492;2023-06-26T11:19:14;8.80;;;6.30;;
40373;SDS011;26079;45.958;12.492;2023-06-26T11:21:44;6.68;;;6.15;;
40373;SDS011;26079;45.958;12.492;2023-06-26T11:24:11;7.75;;;6.47;;
40373;SDS011;26079;45.958;12.492;2023-06-26T11:26:42;10.30;;;7.20;;
40373;SDS011;26079;45.958;12.492;2023-06-26T11:29:09;18.95;;;7.07;;
40373;SDS011;26079;45.958;12.492;2023-06-26T11:31:36;9.40;;;7.07;;
40373;SDS011;26079;45.958;12.492;2023-06-26T11:34:03;7.88;;;7.07;;
40373;SDS011;26079;45.958;12.492;2023-06-26T11:36:32;8.07;;;6.82;;
40373;SDS011;26079;45.958;12.492;2023-06-26T11:39:02;9.75;;;7.05;;
40373;SDS011;26079;45.958;12.492;2023-06-26T11:41:31;7.70;;;6.35;;
40373;SDS011;26079;45.958;12.492;2023-06-26T11:44:01;8.55;;;6.28;;
40373;SDS011;26079;45.958;12.492;2023-06-26T11:46:28;9.45;;;5.75;;
40373;SDS011;26079;45.958;12.492;2023-06-26T11:48:55;8.85;;;6.55;;
40373;SDS011;26079;45.958;12.492;2023-06-26T11:51:21;7.25;;;6.45;;
40373;SDS011;26079;45.958;12.492;2023-06-26T11:53:47;7.40;;;6.15;;
40373;SDS011;26079;45.958;12.492;2023-06-26T11:56:16;8.38;;;7.63;;
40373;SDS011;26079;45.958;12.492;2023-06-26T11:58:55;8.18;;;7.38;;
40373;SDS011;26079;45.958;12.492;2023-06-26T12:01:24;7.63;;;6.55;;
40373;SDS011;26079;45.958;12.492;2023-06-26T12:03:50;7.70;;;6.15;;
40373;SDS011;26079;45.958;12.492;2023-06-26T12:06:16;7.65;;;6.72;;
40373;SDS011;26079;45.958;12.492;2023-06-26T12:08:42;8.85;;;6.25;;
40373;SDS011;26079;45.958;12.492;2023-06-26T12:11:08;6.78;;;6.20;;
40373;SDS011;26079;45.958;12.492;2023-06-26T12:13:35;7.63;;;6.82;;
40373;SDS011;26079;45.958;12.492;2023-06-26T12:16:01;7.55;;;6.82;;
40373;SDS011;26079;45.958;12.492;2023-06-26T12:18:32;8.27;;;6.78;;
40373;SDS011;26079;45.958;12.492;2023-06-26T12:20:59;10.70;;;6.85;;
40373;SDS011;26079;45.958;12.492;2023-06-26T12:23:32;6.93;;;6.30;;
40373;SDS011;26079;45.958;12.492;2023-06-26T12:25:58;9.20;;;6.38;;
40373;SDS011;26079;45.958;12.492;2023-06-26T12:28:24;7.75;;;6.78;;
40373;SDS011;26079;45.958;12.492;2023-06-26T12:31:23;6.75;;;6.15;;
40373;SDS011;26079;45.958;12.492;2023-06-26T12:33:45;7.40;;;6.35;;
40373;SDS011;26079;45.958;12.492;2023-06-26T12:36:11;7.28;;;6.55;;
40373;SDS011;26079;45.958;12.492;2023-06-26T12:38:37;12.25;;;6.13;;
40373;SDS011;26079;45.958;12.492;2023-06-26T12:41:03;7.18;;;6.47;;
40373;SDS011;26079;45.958;12.492;2023-06-26T12:43:29;7.30;;;6.45;;
40373;SDS011;26079;45.958;12.492;2023-06-26T12:45:55;9.40;;;6.55;;
40373;SDS011;26079;45.958;12.492;2023-06-26T12:48:21;8.27;;;6.53;;
40373;SDS011;26079;45.958;12.492;2023-06-26T12:51:07;6.93;;;6.22;;
40373;SDS011;26079;45.958;12.492;2023-06-26T12:53:34;7.30;;;6.38;;
40373;SDS011;26079;45.958;12.492;2023-06-26T12:56:00;7.85;;;6.63;;
40373;SDS011;26079;45.958;12.492;2023-06-26T12:58:25;11.05;;;6.97;;
40373;SDS011;26079;45.958;12.492;2023-06-26T13:00:51;11.77;;;6.78;;
40373;SDS011;26079;45.958;12.492;2023-06-26T13:03:18;9.50;;;6.30;;
40373;SDS011;26079;45.958;12.492;2023-06-26T13:05:45;8.93;;;6.63;;
40373;SDS011;26079;45.958;12.492;2023-06-26T13:08:12;8.98;;;6.70;;
40373;SDS011;26079;45.958;12.492;2023-06-26T13:10:42;9.40;;;6.35;;
40373;SDS011;26079;45.958;12.492;2023-06-26T13:13:09;6.90;;;6.32;;
40373;SDS011;26079;45.958;12.492;2023-06-26T13:15:35;9.10;;;6.45;;
40373;SDS011;26079;45.958;12.492;2023-06-26T13:18:01;13.75;;;6.38;;
40373;SDS011;26079;45.958;12.492;2023-06-26T13:20:27;6.22;;;5.63;;
40373;SDS011;26079;45.958;12.492;2023-06-26T13:22:53;6.63;;;6.03;;
40373;SDS011;26079;45.958;12.492;2023-06-26T13:25:19;9.50;;;6.15;;
40373;SDS011;26079;45.958;12.492;2023-06-26T13:27:45;7.32;;;6.03;;
40373;SDS011;26079;45.958;12.492;2023-06-26T13:30:12;13.88;;;6.50;;
40373;SDS011;26079;45.958;12.492;2023-06-26T13:32:37;10.75;;;7.43;;
40373;SDS011;26079;45.958;12.492;2023-06-26T13:35:03;6.53;;;5.80;;
40373;SDS011;26079;45.958;12.492;2023-06-26T13:37:43;7.22;;;5.80;;
40373;SDS011;26079;45.958;12.492;2023-06-26T13:40:08;9.30;;;5.47;;
40373;SDS011;26079;45.958;12.492;2023-06-26T13:42:35;5.85;;;5.43;;
40373;SDS011;26079;45.958;12.492;2023-06-26T13:45:01;12.80;;;6.65;;
40373;SDS011;26079;45.958;12.492;2023-06-26T13:47:28;6.60;;;5.97;;
40373;SDS011;26079;45.958;12.492;2023-06-26T13:49:54;6.13;;;5.53;;
40373;SDS011;26079;45.958;12.492;2023-06-26T13:52:20;14.05;;;5.82;;
40373;SDS011;26079;45.958;12.492;2023-06-26T13:57:14;9.35;;;5.88;;
40373;SDS011;26079;45.958;12.492;2023-06-26T13:59:41;6.85;;;5.60;;
40373;SDS011;26079;45.958;12.492;2023-06-26T14:02:07;12.27;;;5.40;;
40373;SDS011;26079;45.958;12.492;2023-06-26T14:04:33;10.25;;;5.28;;
40373;SDS011;26079;45.958;12.492;2023-06-26T14:06:59;6.70;;;5.35;;
40373;SDS011;26079;45.958;12.492;2023-06-26T14:09:26;6.35;;;5.07;;
40373;SDS011;26079;45.958;12.492;2023-06-26T14:11:52;9.95;;;6.13;;
40373;SDS011;26079;45.958;12.492;2023-06-26T14:14:18;8.00;;;5.55;;
40373;SDS011;26079;45.958;12.492;2023-06-26T14:16:43;11.32;;;5.90;;
40373;SDS011;26079;45.958;12.492;2023-06-26T14:19:09;13.93;;;5.45;;
40373;SDS011;26079;45.958;12.492;2023-06-26T14:21:40;11.07;;;6.18;;
40373;SDS011;26079;45.958;12.492;2023-06-26T14:24:06;5.45;;;4.82;;
40373;SDS011;26079;45.958;12.492;2023-06-26T14:26:32;6.88;;;5.68;;
40373;SDS011;26079;45.958;12.492;2023-06-26T14:28:58;6.47;;;5.68;;
40373;SDS011;26079;45.958;12.492;2023-06-26T14:31:25;9.40;;;5.32;;
40373;SDS011;26079;45.958;12.492;2023-06-26T14:33:51;8.77;;;5.22;;
40373;SDS011;26079;45.958;12.492;2023-06-26T14:36:16;13.30;;;5.35;;
40373;SDS011;26079;45.958;12.492;2023-06-26T14:38:42;7.32;;;5.90;;
40373;SDS011;26079;45.958;12.492;2023-06-26T14:41:08;9.07;;;5.07;;
40373;SDS011;26079;45.958;12.492;2023-06-26T14:43:33;5.65;;;4.93;;
40373;SDS011;26079;45.958;12.492;2023-06-26T14:45:59;7.88;;;5.68;;
40373;SDS011;26079;45.958;12.492;2023-06-26T14:48:25;7.72;;;5.55;;
40373;SDS011;26079;45.958;12.492;2023-06-26T14:50:50;8.70;;;5.72;;
40373;SDS011;26079;45.958;12.492;2023-06-26T14:53:16;11.35;;;5.60;;